createdAt,value
2018-06-16T00:01:03.510Z,21.20
2018-06-16T00:03:31.961Z,21.20
2018-06-16T00:06:00.783Z,21.20
2018-06-16T00:08:29.259Z,21.10
2018-06-16T00:10:58.735Z,21.00
2018-06-16T00:13:27.219Z,21.00
2018-06-16T00:15:55.642Z,20.90
2018-06-16T00:18:24.867Z,21.00
2018-06-16T00:20:53.358Z,21.00
2018-06-16T00:23:21.788Z,20.90
2018-06-16T00:25:50.687Z,21.00
2018-06-16T00:28:19.148Z,21.00
2018-06-16T00:30:47.863Z,21.00
2018-06-16T00:33:17.423Z,21.00
2018-06-16T00:35:46.291Z,21.00
2018-06-16T00:38:15.097Z,21.00
2018-06-16T00:40:44.041Z,21.00
2018-06-16T00:43:13.029Z,21.10
2018-06-16T00:45:41.911Z,21.00
2018-06-16T00:48:10.754Z,21.10
2018-06-16T00:50:39.983Z,21.00
2018-06-16T00:53:08.608Z,21.00
2018-06-16T00:55:37.192Z,20.90
2018-06-16T01:00:34.378Z,20.90
2018-06-16T01:03:02.938Z,20.90
2018-06-16T01:05:32.241Z,20.90
2018-06-16T01:08:00.834Z,20.90
2018-06-16T01:10:30.118Z,20.90
2018-06-16T01:12:58.971Z,20.90
2018-06-16T01:15:28.802Z,20.80
2018-06-16T01:17:57.531Z,20.90
2018-06-16T01:20:26.452Z,20.90
2018-06-16T01:22:55.519Z,20.80
2018-06-16T01:25:24.219Z,20.80
2018-06-16T01:27:53.024Z,20.80
2018-06-16T01:30:22.112Z,20.80
2018-06-16T01:32:51.283Z,20.80
2018-06-16T01:35:20.976Z,20.70
2018-06-16T01:37:49.929Z,20.70
2018-06-16T01:40:18.489Z,20.70
2018-06-16T01:42:47.093Z,20.60
2018-06-16T01:45:15.906Z,20.60
2018-06-16T01:47:44.505Z,20.60
2018-06-16T01:50:13.144Z,20.60
2018-06-16T01:52:41.888Z,20.60
2018-06-16T01:55:10.711Z,20.50
2018-06-16T01:57:39.532Z,20.50
2018-06-16T02:00:08.309Z,20.40
2018-06-16T02:02:37.024Z,20.40
2018-06-16T02:05:06.202Z,20.40
2018-06-16T02:07:34.891Z,20.30
2018-06-16T02:12:32.054Z,20.20
2018-06-16T02:15:00.519Z,20.20
2018-06-16T02:17:28.951Z,20.10
2018-06-16T02:19:57.434Z,20.20
2018-06-16T02:22:25.918Z,20.10
2018-06-16T02:24:54.535Z,20.00
2018-06-16T02:27:22.924Z,20.00
2018-06-16T02:29:51.343Z,20.00
2018-06-16T02:32:19.740Z,20.00
2018-06-16T02:34:48.323Z,19.90
2018-06-16T02:37:17.091Z,19.90
2018-06-16T02:39:45.646Z,19.90
2018-06-16T02:42:14.582Z,19.80
2018-06-16T02:44:43.281Z,19.90
2018-06-16T02:47:11.702Z,19.80
2018-06-16T02:49:40.341Z,19.80
2018-06-16T02:52:09.127Z,19.80
2018-06-16T02:54:37.585Z,19.70
2018-06-16T02:57:06.221Z,19.70
2018-06-16T02:59:35.346Z,19.60
2018-06-16T03:02:04.055Z,19.60
2018-06-16T03:04:32.606Z,19.50
2018-06-16T03:07:01.334Z,19.50
2018-06-16T03:09:29.857Z,19.40
2018-06-16T03:11:58.911Z,19.40
2018-06-16T03:14:27.338Z,19.30
2018-06-16T03:16:56.063Z,19.40
2018-06-16T03:19:24.575Z,19.40
2018-06-16T03:21:53.073Z,19.30
2018-06-16T03:24:21.474Z,19.30
2018-06-16T03:26:50.064Z,19.30
2018-06-16T03:29:18.470Z,19.30
2018-06-16T03:31:46.880Z,19.30
2018-06-16T03:34:15.561Z,19.30
2018-06-16T03:36:44.447Z,19.20
2018-06-16T03:39:13.271Z,19.30
2018-06-16T03:41:42.163Z,19.20
2018-06-16T03:44:12.059Z,19.20
2018-06-16T03:46:40.866Z,19.20
2018-06-16T03:49:10.232Z,19.20
2018-06-16T03:51:38.959Z,19.20
2018-06-16T03:54:07.561Z,19.10
2018-06-16T03:56:36.391Z,19.10
2018-06-16T03:59:05.159Z,19.10
2018-06-16T04:01:34.198Z,19.10
2018-06-16T04:04:02.975Z,19.10
2018-06-16T04:06:31.867Z,19.10
2018-06-16T04:09:00.528Z,19.10
2018-06-16T04:11:29.075Z,19.10
2018-06-16T04:16:25.856Z,19.10
2018-06-16T04:18:54.537Z,19.10
2018-06-16T04:21:23.191Z,19.20
2018-06-16T04:23:51.761Z,19.20
2018-06-16T04:26:20.284Z,19.10
2018-06-16T04:28:48.791Z,19.20
2018-06-16T04:31:17.287Z,19.20
2018-06-16T04:33:46.093Z,19.20
2018-06-16T04:36:15.125Z,19.20
2018-06-16T04:38:43.735Z,19.20
2018-06-16T04:41:12.545Z,19.20
2018-06-16T04:43:41.152Z,19.30
2018-06-16T04:46:09.851Z,19.30
2018-06-16T04:51:07.302Z,19.30
2018-06-16T04:53:36.617Z,19.30
2018-06-16T04:58:34.917Z,19.40
2018-06-16T05:01:03.456Z,19.40
2018-06-16T05:03:31.972Z,19.50
2018-06-16T05:06:00.896Z,19.50
2018-06-16T05:08:29.613Z,19.50
2018-06-16T05:10:58.394Z,19.50
2018-06-16T05:13:27.425Z,19.50
2018-06-16T05:15:56.765Z,19.50
2018-06-16T05:18:25.699Z,19.60
2018-06-16T05:20:55.104Z,19.60
2018-06-16T05:23:23.996Z,19.70
2018-06-16T05:25:53.272Z,19.80
2018-06-16T05:28:22.534Z,19.80
2018-06-16T05:30:52.128Z,19.80
2018-06-16T05:33:20.846Z,19.80
2018-06-16T05:35:49.242Z,19.80
2018-06-16T05:38:17.969Z,19.80
2018-06-16T05:40:46.820Z,19.80
2018-06-16T05:43:15.801Z,19.80
2018-06-16T05:45:44.389Z,19.90
2018-06-16T05:48:13.228Z,19.90
2018-06-16T05:50:41.876Z,20.00
2018-06-16T05:53:10.464Z,20.10
2018-06-16T05:55:38.836Z,20.10
2018-06-16T05:58:07.301Z,20.10
2018-06-16T06:00:35.769Z,20.10
2018-06-16T06:03:04.214Z,20.20
2018-06-16T06:05:32.708Z,20.20
2018-06-16T06:08:01.239Z,20.30
2018-06-16T06:10:29.797Z,20.40
2018-06-16T06:12:58.164Z,20.40
2018-06-16T06:15:26.916Z,20.40
2018-06-16T06:17:55.374Z,20.40
2018-06-16T06:20:23.762Z,20.40
2018-06-16T06:22:52.557Z,20.40
2018-06-16T06:25:21.026Z,20.50
2018-06-16T06:27:49.543Z,20.50
2018-06-16T06:30:18.211Z,20.60
2018-06-16T06:32:46.746Z,20.60
2018-06-16T06:35:15.201Z,20.70
2018-06-16T06:37:43.681Z,20.70
2018-06-16T06:40:12.137Z,20.70
2018-06-16T06:42:40.545Z,20.70
2018-06-16T06:45:09.127Z,20.70
2018-06-16T06:47:37.638Z,20.70
2018-06-16T06:50:06.122Z,20.80
2018-06-16T06:52:34.604Z,20.90
2018-06-16T06:55:03.688Z,20.90
2018-06-16T06:57:32.078Z,21.00
2018-06-16T07:00:00.586Z,21.10
2018-06-16T07:02:29.307Z,21.10
2018-06-16T07:04:57.805Z,21.20
2018-06-16T07:07:26.263Z,21.20
2018-06-16T07:09:55.258Z,21.20
2018-06-16T07:12:23.678Z,21.30
2018-06-16T07:14:52.225Z,21.30
2018-06-16T07:17:20.641Z,21.40
2018-06-16T07:19:49.096Z,21.40
2018-06-16T07:22:17.592Z,21.50
2018-06-16T07:24:46.072Z,21.50
2018-06-16T07:27:14.686Z,21.60
2018-06-16T07:29:43.272Z,21.70
2018-06-16T07:32:11.689Z,21.70
2018-06-16T07:34:40.221Z,21.70
2018-06-16T07:37:08.734Z,21.70
2018-06-16T07:39:37.545Z,21.80
2018-06-16T07:42:06.173Z,21.80
2018-06-16T07:44:34.625Z,21.80
2018-06-16T07:47:03.193Z,21.90
2018-06-16T07:49:31.577Z,22.00
2018-06-16T07:52:00.041Z,22.00
2018-06-16T07:54:28.495Z,22.00
2018-06-16T07:56:56.915Z,22.10
2018-06-16T07:59:25.359Z,22.10
2018-06-16T08:01:53.768Z,22.20
2018-06-16T08:04:22.259Z,22.30
2018-06-16T08:06:50.686Z,22.30
2018-06-16T08:09:19.095Z,22.30
2018-06-16T08:11:47.516Z,22.30
2018-06-16T08:14:15.975Z,22.40
2018-06-16T08:16:44.462Z,22.40
2018-06-16T08:19:12.859Z,22.40
2018-06-16T08:21:41.280Z,22.50
2018-06-16T08:24:09.789Z,22.60
2018-06-16T08:26:38.213Z,22.60
2018-06-16T08:29:06.663Z,22.70
2018-06-16T08:31:35.095Z,22.70
2018-06-16T08:34:03.644Z,22.80
2018-06-16T08:36:32.135Z,22.80
2018-06-16T08:39:00.673Z,22.90
2018-06-16T08:41:29.068Z,23.00
2018-06-16T08:43:57.935Z,23.00
2018-06-16T08:46:26.360Z,23.00
2018-06-16T08:48:54.850Z,23.00
2018-06-16T08:51:23.258Z,23.10
2018-06-16T08:53:51.645Z,23.10
2018-06-16T08:56:20.092Z,23.20
2018-06-16T08:58:48.807Z,23.20
2018-06-16T09:01:17.295Z,23.20
2018-06-16T09:03:45.933Z,23.20
2018-06-16T09:06:14.486Z,23.20
2018-06-16T09:08:42.869Z,23.20
2018-06-16T09:11:11.301Z,23.20
2018-06-16T09:16:08.722Z,23.20
2018-06-16T09:18:38.067Z,23.30
2018-06-16T09:21:06.506Z,23.30
2018-06-16T09:23:35.073Z,23.30
2018-06-16T09:26:03.521Z,23.30
2018-06-16T09:28:31.969Z,23.30
2018-06-16T09:31:00.399Z,23.30
2018-06-16T09:33:28.842Z,23.30
2018-06-16T09:35:58.194Z,23.30
2018-06-16T09:38:26.645Z,23.30
2018-06-16T09:40:55.069Z,23.40
2018-06-16T09:43:23.637Z,23.40
2018-06-16T09:45:52.119Z,23.40
2018-06-16T09:48:20.644Z,23.30
2018-06-16T09:50:49.068Z,23.30
2018-06-16T09:53:17.499Z,23.20
2018-06-16T09:58:14.039Z,23.20
2018-06-16T10:03:11.852Z,23.30
2018-06-16T10:05:40.460Z,23.30
2018-06-16T10:08:09.290Z,23.40
2018-06-16T10:10:37.896Z,23.40
2018-06-16T10:13:06.917Z,23.50
2018-06-16T10:15:35.359Z,23.50
2018-06-16T10:18:03.842Z,23.50
2018-06-16T10:20:33.654Z,23.50
2018-06-16T10:23:03.065Z,23.60
2018-06-16T10:25:32.150Z,23.70
2018-06-16T10:28:01.939Z,23.70
2018-06-16T10:30:30.926Z,23.90
2018-06-16T10:33:00.208Z,23.90
2018-06-16T10:35:29.239Z,23.80
2018-06-16T10:37:58.681Z,23.70
2018-06-16T10:40:28.815Z,23.80
2018-06-16T10:42:57.323Z,23.70
2018-06-16T10:45:25.859Z,23.70
2018-06-16T10:47:54.342Z,23.80
2018-06-16T10:50:22.800Z,23.80
2018-06-16T10:52:51.314Z,23.80
2018-06-16T10:55:19.942Z,23.80
2018-06-16T10:57:48.491Z,23.80
2018-06-16T11:00:17.413Z,23.80
2018-06-16T11:02:46.013Z,23.80
2018-06-16T11:05:14.701Z,23.80
2018-06-16T11:07:43.138Z,23.90
2018-06-16T11:11:26.155Z,23.90
2018-06-16T11:13:54.821Z,24.00
2018-06-16T11:16:23.360Z,24.00
2018-06-16T11:18:52.155Z,24.00
2018-06-16T11:21:20.927Z,24.00
2018-06-16T11:23:49.595Z,24.00
2018-06-16T11:26:18.350Z,24.00
2018-06-16T11:28:48.453Z,24.00
2018-06-16T11:31:17.259Z,24.10
2018-06-16T11:33:46.542Z,24.10
2018-06-16T11:36:15.826Z,24.20
2018-06-16T11:41:13.194Z,24.30
2018-06-16T11:43:42.052Z,24.40
2018-06-16T11:46:11.063Z,24.50
2018-06-16T11:48:40.400Z,24.60
2018-06-16T11:51:09.332Z,24.60
2018-06-16T11:53:38.053Z,24.70
2018-06-16T11:56:07.048Z,24.70
2018-06-16T11:58:35.995Z,24.70
2018-06-16T12:01:04.779Z,24.80
2018-06-16T12:03:34.305Z,24.90
2018-06-16T12:06:03.151Z,25.10
2018-06-16T12:08:32.996Z,25.20
2018-06-16T12:11:02.216Z,25.30
2018-06-16T12:13:31.335Z,25.30
2018-06-16T12:16:00.962Z,25.30
2018-06-16T12:18:30.334Z,25.20
2018-06-16T12:20:59.469Z,25.10
2018-06-16T12:23:28.443Z,25.20
2018-06-16T12:25:56.990Z,25.20
2018-06-16T12:28:25.767Z,25.20
2018-06-16T12:30:55.223Z,25.10
2018-06-16T12:33:24.173Z,25.10
2018-06-16T12:35:52.922Z,25.10
2018-06-16T12:38:22.272Z,25.10
2018-06-16T12:40:51.657Z,25.10
2018-06-16T12:43:20.468Z,25.20
2018-06-16T12:45:50.367Z,25.30
2018-06-16T12:48:19.786Z,25.40
2018-06-16T12:50:49.331Z,25.50
2018-06-16T12:53:19.309Z,25.60
2018-06-16T12:55:48.728Z,25.80
2018-06-16T12:58:17.888Z,26.00
2018-06-16T13:00:47.199Z,26.20
2018-06-16T13:03:16.239Z,26.20
2018-06-16T13:05:45.757Z,26.20
2018-06-16T13:08:15.067Z,26.10
2018-06-16T13:10:44.235Z,26.10
2018-06-16T13:13:13.969Z,26.20
2018-06-16T13:15:43.399Z,26.40
2018-06-16T13:18:12.666Z,26.70
2018-06-16T13:20:42.124Z,26.90
2018-06-16T13:23:11.366Z,27.10
2018-06-16T13:25:40.414Z,27.20
2018-06-16T13:28:09.527Z,27.00
2018-06-16T13:30:39.393Z,27.00
2018-06-16T13:33:08.567Z,26.80
2018-06-16T13:35:37.390Z,26.70
2018-06-16T13:38:06.083Z,26.60
2018-06-16T13:40:34.791Z,26.40
2018-06-16T13:43:03.710Z,26.20
2018-06-16T13:45:32.330Z,26.00
2018-06-16T13:48:01.023Z,25.90
2018-06-16T13:52:58.689Z,25.60
2018-06-16T13:55:28.244Z,25.50
2018-06-16T13:57:57.014Z,25.30
2018-06-16T14:00:26.100Z,25.30
2018-06-16T14:02:54.745Z,25.30
2018-06-16T14:05:23.330Z,25.40
2018-06-16T14:07:51.790Z,25.50
2018-06-16T14:10:20.260Z,25.70
2018-06-16T14:12:48.776Z,25.70
2018-06-16T14:15:17.495Z,25.70
2018-06-16T14:17:46.036Z,25.80
2018-06-16T14:20:14.762Z,26.00
2018-06-16T14:22:43.426Z,26.20
2018-06-16T14:25:12.221Z,26.30
2018-06-16T14:27:40.867Z,26.30
2018-06-16T14:30:09.716Z,26.50
2018-06-16T14:32:38.387Z,26.70
2018-06-16T14:35:07.109Z,26.90
2018-06-16T14:37:35.875Z,27.20
2018-06-16T14:41:19.041Z,27.40
2018-06-16T14:43:47.831Z,27.60
2018-06-16T14:46:16.587Z,27.80
2018-06-16T14:48:45.518Z,28.00
2018-06-16T14:51:14.358Z,28.00
2018-06-16T14:53:42.964Z,27.90
2018-06-16T14:56:11.913Z,27.80
2018-06-16T14:58:41.564Z,27.70
2018-06-16T15:01:10.810Z,27.70
2018-06-16T15:03:40.156Z,27.80
2018-06-16T15:06:09.202Z,27.80
2018-06-16T15:08:38.245Z,27.80
2018-06-16T15:11:07.746Z,27.90
2018-06-16T15:13:36.805Z,27.90
2018-06-16T15:16:06.378Z,27.80
2018-06-16T15:18:35.578Z,27.80
2018-06-16T15:21:05.073Z,27.80
2018-06-16T15:23:35.126Z,27.70
2018-06-16T15:26:03.992Z,27.80
2018-06-16T15:28:33.056Z,27.80
2018-06-16T15:31:01.999Z,27.70
2018-06-16T15:33:31.041Z,27.70
2018-06-16T15:36:00.068Z,27.60
2018-06-16T15:40:58.697Z,27.40
2018-06-16T15:43:28.383Z,27.40
2018-06-16T15:48:26.817Z,27.20
2018-06-16T15:50:56.136Z,27.10
2018-06-16T15:53:25.327Z,27.20
2018-06-16T15:55:54.569Z,27.30
2018-06-16T16:00:52.510Z,27.40
2018-06-16T16:03:21.517Z,27.40
2018-06-16T16:05:50.985Z,27.30
2018-06-16T16:08:20.935Z,27.30
2018-06-16T16:10:49.654Z,27.20
2018-06-16T16:13:18.769Z,27.10
2018-06-16T16:15:47.582Z,27.10
2018-06-16T16:18:16.606Z,27.10
2018-06-16T16:20:45.939Z,27.10
2018-06-16T16:23:14.704Z,27.10
2018-06-16T16:25:43.691Z,27.00
2018-06-16T16:28:13.709Z,27.10
2018-06-16T16:30:43.285Z,27.10
2018-06-16T16:33:12.877Z,27.20
2018-06-16T16:35:42.296Z,27.20
2018-06-16T16:38:11.717Z,27.20
2018-06-16T16:40:41.502Z,27.10
2018-06-16T16:43:11.344Z,27.10
2018-06-16T16:45:40.454Z,27.10
2018-06-16T16:48:09.638Z,27.10
2018-06-16T16:50:38.673Z,27.20
2018-06-16T16:53:07.610Z,27.20
2018-06-16T16:55:37.256Z,27.20
2018-06-16T16:58:07.037Z,27.20
2018-06-16T17:00:36.269Z,27.30
2018-06-16T17:03:05.036Z,27.20
2018-06-16T17:05:33.764Z,27.20
2018-06-16T17:08:03.423Z,27.10
2018-06-16T17:10:33.629Z,27.00
2018-06-16T17:13:03.195Z,26.90
2018-06-16T17:15:32.605Z,26.60
2018-06-16T17:18:01.914Z,26.50
2018-06-16T17:20:31.488Z,26.40
2018-06-16T17:23:01.260Z,26.40
2018-06-16T17:25:31.087Z,26.40
2018-06-16T17:28:00.396Z,26.30
2018-06-16T17:30:29.721Z,26.30
2018-06-16T17:32:59.215Z,26.30
2018-06-16T17:35:28.744Z,26.20
2018-06-16T17:37:57.867Z,26.20
2018-06-16T17:40:27.748Z,26.10
2018-06-16T17:42:57.120Z,26.10
2018-06-16T17:45:27.122Z,26.10
2018-06-16T17:47:56.700Z,26.10
2018-06-16T17:50:26.496Z,26.00
2018-06-16T17:52:55.512Z,26.00
2018-06-16T17:55:24.454Z,26.00
2018-06-16T17:57:53.861Z,25.90
2018-06-16T18:00:23.331Z,25.90
2018-06-16T18:02:52.305Z,25.90
2018-06-16T18:05:22.548Z,25.90
2018-06-16T18:07:52.155Z,25.90
2018-06-16T18:10:21.386Z,25.80
2018-06-16T18:12:50.306Z,25.80
2018-06-16T18:15:19.765Z,25.50
2018-06-16T18:17:49.297Z,25.00
2018-06-16T18:20:18.667Z,24.60
2018-06-16T18:22:47.939Z,24.10
2018-06-16T18:25:16.909Z,23.70
2018-06-16T18:27:45.668Z,23.30
2018-06-16T18:30:14.474Z,23.00
2018-06-16T18:32:43.089Z,22.80
2018-06-16T18:35:11.736Z,22.60
2018-06-16T18:37:40.433Z,22.20
2018-06-16T18:40:09.033Z,22.10
2018-06-16T18:42:37.473Z,22.00
2018-06-16T18:45:06.281Z,21.90
2018-06-16T18:47:34.847Z,21.90
2018-06-16T18:50:03.562Z,21.80
2018-06-16T18:52:32.087Z,21.70
2018-06-16T18:55:00.531Z,21.70
2018-06-16T18:57:29.107Z,21.60
2018-06-16T18:59:57.742Z,21.60
2018-06-16T19:02:26.265Z,21.60
2018-06-16T19:04:54.821Z,21.60
2018-06-16T19:07:23.342Z,21.60
2018-06-16T19:09:52.252Z,21.60
2018-06-16T19:12:21.082Z,21.70
2018-06-16T19:14:50.465Z,21.70
2018-06-16T19:17:18.984Z,21.70
2018-06-16T19:19:48.616Z,21.80
2018-06-16T19:22:17.930Z,21.80
2018-06-16T19:24:47.126Z,21.90
2018-06-16T19:27:16.012Z,21.90
2018-06-16T19:29:44.556Z,21.90
2018-06-16T19:32:13.272Z,21.90
2018-06-16T19:34:42.027Z,21.80
2018-06-16T19:37:10.533Z,21.90
2018-06-16T19:39:39.243Z,21.90
2018-06-16T19:42:07.828Z,22.00
2018-06-16T19:44:36.573Z,22.00
2018-06-16T19:47:05.413Z,22.00
2018-06-16T19:49:33.900Z,22.00
2018-06-16T19:52:02.607Z,22.00
2018-06-16T19:54:31.214Z,22.10
2018-06-16T19:56:59.733Z,22.10
2018-06-16T19:59:28.300Z,22.10
2018-06-16T20:01:56.824Z,22.20
2018-06-16T20:04:25.505Z,22.10
2018-06-16T20:06:54.118Z,22.10
2018-06-16T20:09:22.609Z,22.10
2018-06-16T20:11:51.346Z,22.10
2018-06-16T20:14:19.850Z,22.10
2018-06-16T20:16:48.868Z,22.00
2018-06-16T20:19:17.455Z,22.00
2018-06-16T20:21:46.250Z,21.90
2018-06-16T20:24:15.275Z,21.80
2018-06-16T20:26:43.952Z,21.70
2018-06-16T20:29:13.889Z,21.70
2018-06-16T20:31:43.276Z,21.70
2018-06-16T20:34:12.922Z,21.60
2018-06-16T20:36:42.350Z,21.60
2018-06-16T20:39:12.025Z,21.60
2018-06-16T20:41:41.605Z,21.60
2018-06-16T20:44:11.089Z,21.60
2018-06-16T20:46:40.330Z,21.50
2018-06-16T20:49:10.459Z,21.50
2018-06-16T20:51:40.217Z,21.40
2018-06-16T20:54:10.037Z,21.40
2018-06-16T20:56:39.344Z,21.30
2018-06-16T20:59:08.207Z,21.30
2018-06-16T21:01:37.575Z,21.20
2018-06-16T21:04:06.630Z,21.20
2018-06-16T21:06:35.714Z,21.10
2018-06-16T21:09:07.245Z,21.00
2018-06-16T21:11:36.671Z,21.00
2018-06-16T21:14:05.827Z,21.00
2018-06-16T21:16:34.935Z,20.90
2018-06-16T21:19:04.964Z,20.80
2018-06-16T21:21:33.881Z,20.80
2018-06-16T21:24:03.295Z,20.70
2018-06-16T21:26:32.481Z,20.70
2018-06-16T21:29:01.714Z,20.60
2018-06-16T21:31:30.732Z,20.60
2018-06-16T21:33:59.390Z,20.50
2018-06-16T21:36:28.753Z,20.50
2018-06-16T21:38:57.397Z,20.40
2018-06-16T21:41:25.963Z,20.40
2018-06-16T21:43:54.927Z,20.40
2018-06-16T21:46:24.265Z,20.40
2018-06-16T21:48:54.057Z,20.30
2018-06-16T21:51:23.699Z,20.30
2018-06-16T21:53:53.759Z,20.30
2018-06-16T21:56:23.221Z,20.30
2018-06-16T21:58:52.295Z,20.20
2018-06-16T22:01:20.777Z,20.20
2018-06-16T22:03:50.097Z,20.20
2018-06-16T22:06:19.826Z,20.20
2018-06-16T22:08:49.507Z,20.20
2018-06-16T22:11:19.193Z,20.20
2018-06-16T22:16:17.550Z,20.20
2018-06-16T22:18:47.261Z,20.20
2018-06-16T22:21:16.011Z,20.10
2018-06-16T22:23:44.913Z,20.10
2018-06-16T22:26:14.167Z,20.00
2018-06-16T22:28:43.052Z,20.00
2018-06-16T22:31:11.752Z,20.00
2018-06-16T22:33:40.587Z,20.00
2018-06-16T22:36:09.688Z,20.00
2018-06-16T22:38:38.204Z,20.00
2018-06-16T22:41:06.758Z,20.00
2018-06-16T22:43:36.331Z,19.90
2018-06-16T22:46:05.144Z,19.90
2018-06-16T22:48:33.877Z,19.90
2018-06-16T22:51:02.305Z,19.90
2018-06-16T22:53:31.471Z,19.90
2018-06-16T22:56:00.137Z,19.90
2018-06-16T22:58:28.717Z,19.90
2018-06-16T23:00:57.320Z,19.80
2018-06-16T23:03:25.852Z,19.90
2018-06-16T23:05:54.477Z,19.80
2018-06-16T23:08:23.436Z,19.80
2018-06-16T23:10:52.306Z,19.80
2018-06-16T23:13:21.150Z,19.80
2018-06-16T23:15:50.198Z,19.80
2018-06-16T23:18:19.151Z,19.90
2018-06-16T23:20:47.868Z,19.90
2018-06-16T23:23:16.495Z,19.90
2018-06-16T23:26:12.778Z,19.90
2018-06-16T23:28:41.393Z,19.90
2018-06-16T23:31:09.976Z,19.90
2018-06-16T23:33:38.578Z,20.00
2018-06-16T23:36:07.213Z,20.00
2018-06-16T23:38:35.743Z,20.00
2018-06-16T23:41:04.258Z,20.10
2018-06-16T23:43:32.842Z,20.10
2018-06-16T23:46:01.715Z,20.10
2018-06-16T23:48:30.405Z,20.00
2018-06-16T23:50:58.875Z,20.10
2018-06-16T23:53:27.412Z,20.10
2018-06-16T23:55:56.130Z,20.10
2018-06-16T23:58:24.811Z,20.10
